createdAt,value
2023-02-18T00:01:13.586Z,4.30
2023-02-18T00:03:41.463Z,4.55
2023-02-18T00:06:20.430Z,4.15
2023-02-18T00:08:48.039Z,5.18
2023-02-18T00:11:16.327Z,6.28
2023-02-18T00:13:43.211Z,5.13
2023-02-18T00:16:12.552Z,4.60
2023-02-18T00:18:40.200Z,4.28
2023-02-18T00:21:08.155Z,4.40
2023-02-18T00:23:34.982Z,4.97
2023-02-18T00:26:07.985Z,4.38
2023-02-18T00:28:35.604Z,5.10
2023-02-18T00:31:10.487Z,5.93
2023-02-18T00:33:37.905Z,4.35
2023-02-18T00:36:07.168Z,5.97
2023-02-18T00:38:34.411Z,4.97
2023-02-18T00:41:01.773Z,4.75
2023-02-18T00:43:29.006Z,3.90
2023-02-18T00:45:55.747Z,3.92
2023-02-18T00:48:22.656Z,4.45
2023-02-18T00:50:49.390Z,5.43
2023-02-18T00:53:16.156Z,4.30
2023-02-18T00:55:44.496Z,3.45
2023-02-18T00:58:11.637Z,4.00
2023-02-18T01:00:38.648Z,4.10
2023-02-18T01:03:09.122Z,4.10
2023-02-18T01:05:37.054Z,4.22
2023-02-18T01:08:04.596Z,4.70
2023-02-18T01:10:31.468Z,4.10
2023-02-18T01:12:58.638Z,4.50
2023-02-18T01:15:25.546Z,6.88
2023-02-18T01:17:52.309Z,4.88
2023-02-18T01:20:20.233Z,4.82
2023-02-18T01:22:47.054Z,4.78
2023-02-18T01:25:14.648Z,5.00
2023-02-18T01:27:42.095Z,4.15
2023-02-18T01:30:12.437Z,4.88
2023-02-18T01:32:39.257Z,4.93
2023-02-18T01:35:06.996Z,4.78
2023-02-18T01:37:33.883Z,5.43
2023-02-18T01:40:00.772Z,4.68
2023-02-18T01:42:29.463Z,4.10
2023-02-18T01:45:34.221Z,4.72
2023-02-18T01:48:25.009Z,4.45
2023-02-18T01:50:57.338Z,4.43
2023-02-18T01:53:35.261Z,3.92
2023-02-18T01:56:05.211Z,4.30
2023-02-18T01:58:32.821Z,5.35
2023-02-18T02:00:59.716Z,4.80
2023-02-18T02:03:26.489Z,3.80
2023-02-18T02:05:53.229Z,3.85
2023-02-18T02:08:19.999Z,3.33
2023-02-18T02:11:19.510Z,3.55
2023-02-18T02:14:07.751Z,3.78
2023-02-18T02:16:39.020Z,3.15
2023-02-18T02:19:36.009Z,2.72
2023-02-18T02:22:21.522Z,3.88
2023-02-18T02:25:14.497Z,2.90
2023-02-18T02:28:10.601Z,5.25
2023-02-18T02:30:44.670Z,4.22
2023-02-18T02:33:50.087Z,3.33
2023-02-18T02:36:28.875Z,3.58
2023-02-18T02:39:07.621Z,3.35
2023-02-18T02:41:40.123Z,3.28
2023-02-18T02:44:24.975Z,3.63
2023-02-18T02:47:01.635Z,4.13
2023-02-18T02:49:32.597Z,3.17
2023-02-18T02:52:07.646Z,3.05
2023-02-18T02:54:34.420Z,2.45
2023-02-18T02:57:10.204Z,3.75
2023-02-18T02:59:41.056Z,2.67
2023-02-18T03:02:27.392Z,3.15
2023-02-18T03:05:15.249Z,3.80
2023-02-18T03:08:20.620Z,3.00
2023-02-18T03:11:04.469Z,2.80
2023-02-18T03:13:34.212Z,3.45
2023-02-18T03:16:32.290Z,2.75
2023-02-18T03:19:16.047Z,3.45
2023-02-18T03:21:49.924Z,5.22
2023-02-18T03:24:30.605Z,3.75
2023-02-18T03:27:04.370Z,3.22
2023-02-18T03:29:31.668Z,3.50
2023-02-18T03:32:02.928Z,4.10
2023-02-18T03:34:32.999Z,3.03
2023-02-18T03:37:01.841Z,2.67
2023-02-18T03:39:32.562Z,4.32
2023-02-18T03:41:59.773Z,2.92
2023-02-18T03:44:26.579Z,4.15
2023-02-18T03:46:54.297Z,3.33
2023-02-18T03:49:21.039Z,3.78
2023-02-18T03:51:47.855Z,3.63
2023-02-18T03:54:15.183Z,3.78
2023-02-18T03:56:42.664Z,3.13
2023-02-18T03:59:09.502Z,3.22
2023-02-18T04:01:36.318Z,3.50
2023-02-18T04:04:03.341Z,3.85
2023-02-18T04:06:30.229Z,3.15
2023-02-18T04:08:57.030Z,3.08
2023-02-18T04:11:23.763Z,3.20
2023-02-18T04:13:50.554Z,3.00
2023-02-18T04:16:17.559Z,4.63
2023-02-18T04:18:44.548Z,2.35
2023-02-18T04:21:11.298Z,2.95
2023-02-18T04:23:38.098Z,3.20
2023-02-18T04:26:04.969Z,3.08
2023-02-18T04:28:31.794Z,3.70
2023-02-18T04:30:58.572Z,2.92
2023-02-18T04:33:25.316Z,2.28
2023-02-18T04:35:52.061Z,2.72
2023-02-18T04:38:18.840Z,3.35
2023-02-18T04:40:45.622Z,3.15
2023-02-18T04:43:12.475Z,3.25
2023-02-18T04:45:39.352Z,3.03
2023-02-18T04:48:06.470Z,3.25
2023-02-18T04:50:33.255Z,3.42
2023-02-18T04:53:00.011Z,2.75
2023-02-18T04:55:26.841Z,2.90
2023-02-18T04:57:53.573Z,2.67
2023-02-18T05:00:20.739Z,3.13
2023-02-18T05:02:47.752Z,3.40
2023-02-18T05:05:14.794Z,3.00
2023-02-18T05:07:42.472Z,2.75
2023-02-18T05:10:11.652Z,4.03
2023-02-18T05:12:38.460Z,2.90
2023-02-18T05:15:05.697Z,3.55
2023-02-18T05:17:32.755Z,3.47
2023-02-18T05:19:59.521Z,3.88
2023-02-18T05:22:26.468Z,7.25
2023-02-18T05:24:53.227Z,3.20
2023-02-18T05:27:20.040Z,3.78
2023-02-18T05:29:46.827Z,3.55
2023-02-18T05:32:13.596Z,3.22
2023-02-18T05:34:40.470Z,3.80
2023-02-18T05:37:07.221Z,4.22
2023-02-18T05:39:33.967Z,3.97
2023-02-18T05:42:00.750Z,3.78
2023-02-18T05:44:30.440Z,3.33
2023-02-18T05:46:59.061Z,4.50
2023-02-18T05:49:26.003Z,3.50
2023-02-18T05:51:52.758Z,3.58
2023-02-18T05:54:19.607Z,3.55
2023-02-18T05:56:46.475Z,4.25
2023-02-18T05:59:13.513Z,3.35
2023-02-18T06:01:40.733Z,5.10
2023-02-18T06:04:07.536Z,5.22
2023-02-18T06:06:35.242Z,5.00
2023-02-18T06:09:02.590Z,5.03
2023-02-18T06:11:29.428Z,5.43
2023-02-18T06:13:56.165Z,4.93
2023-02-18T06:16:23.103Z,4.47
2023-02-18T06:18:50.126Z,5.15
2023-02-18T06:21:16.923Z,5.97
2023-02-18T06:23:43.847Z,5.88
2023-02-18T06:26:10.925Z,6.13
2023-02-18T06:28:38.038Z,6.25
2023-02-18T06:31:05.127Z,5.88
2023-02-18T06:33:31.928Z,5.68
2023-02-18T06:36:03.487Z,6.47
2023-02-18T06:38:30.238Z,6.38
2023-02-18T06:40:56.986Z,5.13
2023-02-18T06:43:23.783Z,5.15
2023-02-18T06:45:50.990Z,6.05
2023-02-18T06:48:17.956Z,5.90
2023-02-18T06:50:44.928Z,6.97
2023-02-18T06:53:12.563Z,6.57
2023-02-18T06:55:40.355Z,5.95
2023-02-18T06:58:07.107Z,6.22
2023-02-18T07:00:33.967Z,7.47
2023-02-18T07:03:00.738Z,6.05
2023-02-18T07:05:27.802Z,7.30
2023-02-18T07:07:54.558Z,6.30
2023-02-18T07:10:21.411Z,8.95
2023-02-18T07:12:48.255Z,7.25
2023-02-18T07:15:15.351Z,7.20
2023-02-18T07:17:42.111Z,8.43
2023-02-18T07:20:09.633Z,6.88
2023-02-18T07:22:36.408Z,6.97
2023-02-18T07:25:03.370Z,6.72
2023-02-18T07:27:30.339Z,6.57
2023-02-18T07:29:57.130Z,6.85
2023-02-18T07:32:24.066Z,8.63
2023-02-18T07:34:53.916Z,9.82
2023-02-18T07:37:20.851Z,6.97
2023-02-18T07:39:47.774Z,6.93
2023-02-18T07:42:15.167Z,9.40
2023-02-18T07:44:42.509Z,7.18
2023-02-18T07:47:12.684Z,7.53
2023-02-18T07:49:39.489Z,6.43
2023-02-18T07:52:06.279Z,6.03
2023-02-18T07:54:33.094Z,6.82
2023-02-18T07:57:31.956Z,6.40
2023-02-18T07:59:58.768Z,6.85
2023-02-18T08:02:25.673Z,8.82
2023-02-18T08:04:52.473Z,7.18
2023-02-18T08:07:22.648Z,8.15
2023-02-18T08:09:50.632Z,6.75
2023-02-18T08:12:17.613Z,8.40
2023-02-18T08:14:44.451Z,7.60
2023-02-18T08:17:11.299Z,8.43
2023-02-18T08:19:38.044Z,9.15
2023-02-18T08:22:04.793Z,8.02
2023-02-18T08:24:31.563Z,7.85
2023-02-18T08:27:01.154Z,8.55
2023-02-18T08:29:29.115Z,8.65
2023-02-18T08:31:58.039Z,7.75
2023-02-18T08:34:25.173Z,8.43
2023-02-18T08:36:52.009Z,11.60
2023-02-18T08:39:18.890Z,8.43
2023-02-18T08:41:45.646Z,7.28
2023-02-18T08:44:12.369Z,8.90
2023-02-18T08:46:39.203Z,9.35
2023-02-18T08:49:06.600Z,7.60
2023-02-18T08:51:34.498Z,8.73
2023-02-18T08:54:02.061Z,8.60
2023-02-18T08:56:29.205Z,8.63
2023-02-18T08:58:55.958Z,7.93
2023-02-18T09:01:22.807Z,6.75
2023-02-18T09:03:49.705Z,7.20
2023-02-18T09:06:16.583Z,7.75
2023-02-18T09:08:43.551Z,7.13
2023-02-18T09:11:11.282Z,6.22
2023-02-18T09:13:38.477Z,7.22
2023-02-18T09:16:15.340Z,5.85
2023-02-18T09:18:42.205Z,6.60
2023-02-18T09:21:11.401Z,7.15
2023-02-18T09:23:38.777Z,7.35
2023-02-18T09:26:12.800Z,6.63
2023-02-18T09:28:40.056Z,6.38
2023-02-18T09:31:10.074Z,6.30
2023-02-18T09:33:41.617Z,7.03
2023-02-18T09:36:08.812Z,6.60
2023-02-18T09:38:35.963Z,5.22
2023-02-18T09:41:07.779Z,6.45
2023-02-18T09:43:37.313Z,6.93
2023-02-18T09:46:13.685Z,5.05
2023-02-18T09:48:42.651Z,5.45
2023-02-18T09:51:13.527Z,4.85
2023-02-18T09:53:45.106Z,4.55
2023-02-18T09:56:15.677Z,5.70
2023-02-18T09:58:44.008Z,6.32
2023-02-18T10:01:31.272Z,4.82
2023-02-18T10:04:02.226Z,5.97
2023-02-18T10:06:34.059Z,5.32
2023-02-18T10:09:05.040Z,5.65
2023-02-18T10:11:39.791Z,4.85
2023-02-18T10:14:11.806Z,5.70
2023-02-18T10:16:38.765Z,5.32
2023-02-18T10:19:21.434Z,5.18
2023-02-18T10:21:48.453Z,4.35
2023-02-18T10:24:27.155Z,4.47
2023-02-18T10:26:54.029Z,4.70
2023-02-18T10:29:22.141Z,4.00
2023-02-18T10:31:56.909Z,5.00
2023-02-18T10:34:30.423Z,3.90
2023-02-18T10:39:56.004Z,4.80
2023-02-18T10:42:37.581Z,4.65
2023-02-18T10:45:32.849Z,4.30
2023-02-18T10:48:13.065Z,5.10
2023-02-18T10:50:45.848Z,4.13
2023-02-18T10:53:29.340Z,6.75
2023-02-18T10:55:56.748Z,4.00
2023-02-18T10:58:33.888Z,4.50
2023-02-18T11:01:05.060Z,4.45
2023-02-18T11:03:47.688Z,3.65
2023-02-18T11:06:31.186Z,3.03
2023-02-18T11:08:59.000Z,6.30
2023-02-18T11:11:30.754Z,4.10
2023-02-18T11:14:00.616Z,3.83
2023-02-18T11:16:42.917Z,4.90
2023-02-18T11:19:36.333Z,4.22
2023-02-18T11:22:21.039Z,5.30
2023-02-18T11:24:48.637Z,4.20
2023-02-18T11:27:20.685Z,4.53
2023-02-18T11:29:54.015Z,4.47
2023-02-18T11:32:21.446Z,4.13
2023-02-18T11:34:50.357Z,4.60
2023-02-18T11:37:20.862Z,5.13
2023-02-18T11:39:51.789Z,4.72
2023-02-18T11:42:24.808Z,4.65
2023-02-18T11:44:56.905Z,4.68
2023-02-18T11:47:36.412Z,4.15
2023-02-18T11:50:09.204Z,5.03
2023-02-18T11:52:39.863Z,4.53
2023-02-18T11:55:16.067Z,3.85
2023-02-18T11:58:01.277Z,4.40
2023-02-18T12:00:46.165Z,4.03
2023-02-18T12:03:23.606Z,6.05
2023-02-18T12:05:50.626Z,4.55
2023-02-18T12:08:28.009Z,4.68
2023-02-18T12:11:07.144Z,4.85
2023-02-18T12:13:39.268Z,4.57
2023-02-18T12:16:27.307Z,5.18
2023-02-18T12:19:17.321Z,4.05
2023-02-18T12:21:49.882Z,4.00
2023-02-18T12:24:31.648Z,3.50
2023-02-18T12:27:12.383Z,4.18
2023-02-18T12:30:21.717Z,4.07
2023-02-18T12:33:18.423Z,4.90
2023-02-18T12:36:03.996Z,4.57
2023-02-18T12:38:33.732Z,5.03
2023-02-18T12:41:10.131Z,3.97
2023-02-18T12:43:52.907Z,2.95
2023-02-18T12:46:57.880Z,3.15
2023-02-18T12:49:56.935Z,5.10
2023-02-18T12:52:34.626Z,4.07
2023-02-18T12:55:23.715Z,4.70
2023-02-18T12:58:13.432Z,3.80
2023-02-18T13:00:58.245Z,3.70
2023-02-18T13:03:54.992Z,3.47
2023-02-18T13:06:49.501Z,3.65
2023-02-18T13:09:19.268Z,5.03
2023-02-18T13:12:09.444Z,4.25
2023-02-18T13:14:49.573Z,6.20
2023-02-18T13:17:19.589Z,5.10
2023-02-18T13:20:18.446Z,3.67
2023-02-18T13:22:49.952Z,4.15
2023-02-18T13:25:18.419Z,4.70
2023-02-18T13:28:05.147Z,3.78
2023-02-18T13:30:38.998Z,5.05
2023-02-18T13:33:22.785Z,3.70
2023-02-18T13:38:40.083Z,3.15
2023-02-18T13:41:07.387Z,2.88
2023-02-18T13:43:35.900Z,5.57
2023-02-18T13:46:22.154Z,2.92
2023-02-18T13:48:52.629Z,5.53
2023-02-18T13:51:37.217Z,3.45
2023-02-18T13:54:13.153Z,2.40
2023-02-18T13:57:24.213Z,2.72
2023-02-18T13:59:57.783Z,3.65
2023-02-18T14:02:27.308Z,4.10
2023-02-18T14:05:16.179Z,3.10
2023-02-18T14:07:50.511Z,3.15
2023-02-18T14:10:17.253Z,3.75
2023-02-18T14:13:20.308Z,4.10
2023-02-18T14:15:50.643Z,3.00
2023-02-18T14:18:34.342Z,3.55
2023-02-18T14:21:19.996Z,3.15
2023-02-18T14:24:01.932Z,3.15
2023-02-18T14:26:44.709Z,3.50
2023-02-18T14:29:19.159Z,3.90
2023-02-18T14:31:54.129Z,3.50
2023-02-18T14:34:24.098Z,3.45
2023-02-18T14:37:12.565Z,4.22
2023-02-18T14:40:16.577Z,4.40
2023-02-18T14:42:49.032Z,4.55
2023-02-18T14:45:37.439Z,3.50
2023-02-18T14:48:42.658Z,3.60
2023-02-18T14:51:10.544Z,4.05
2023-02-18T14:53:44.291Z,3.00
2023-02-18T14:56:14.719Z,4.03
2023-02-18T14:59:03.244Z,6.38
2023-02-18T15:01:35.649Z,3.47
2023-02-18T15:04:04.217Z,3.65
2023-02-18T15:06:32.325Z,3.65
2023-02-18T15:09:00.448Z,3.28
2023-02-18T15:11:37.966Z,4.53
2023-02-18T15:14:19.962Z,2.97
2023-02-18T15:16:48.630Z,5.38
2023-02-18T15:19:48.494Z,4.07
2023-02-18T15:22:26.634Z,3.25
2023-02-18T15:24:56.801Z,2.63
2023-02-18T15:27:29.507Z,3.80
2023-02-18T15:30:30.779Z,3.50
2023-02-18T15:33:00.105Z,4.43
2023-02-18T15:35:33.015Z,3.10
2023-02-18T15:38:01.157Z,4.60
2023-02-18T15:40:32.101Z,4.40
2023-02-18T15:43:05.337Z,4.28
2023-02-18T15:45:34.612Z,3.65
2023-02-18T15:48:02.059Z,3.88
2023-02-18T15:50:49.592Z,3.78
2023-02-18T15:53:18.516Z,4.32
2023-02-18T15:55:49.253Z,4.45
2023-02-18T15:58:32.657Z,3.58
2023-02-18T16:01:02.108Z,6.38
2023-02-18T16:03:39.470Z,4.57
2023-02-18T16:06:22.825Z,4.25
2023-02-18T16:09:15.000Z,4.93
2023-02-18T16:11:45.060Z,5.85
2023-02-18T16:14:28.515Z,4.25
2023-02-18T16:17:06.894Z,4.28
2023-02-18T16:19:34.552Z,4.30
2023-02-18T16:22:06.474Z,4.00
2023-02-18T16:24:41.039Z,3.72
2023-02-18T16:27:16.165Z,5.40
2023-02-18T16:29:43.990Z,6.60
2023-02-18T16:32:10.929Z,3.90
2023-02-18T16:34:38.371Z,3.90
2023-02-18T16:37:23.789Z,3.85
2023-02-18T16:39:54.809Z,7.22
2023-02-18T16:42:21.934Z,4.22
2023-02-18T16:44:50.489Z,5.00
2023-02-18T16:47:18.339Z,5.78
2023-02-18T16:49:47.411Z,4.72
2023-02-18T16:52:17.031Z,5.22
2023-02-18T16:54:44.089Z,4.60
2023-02-18T16:57:11.531Z,4.80
2023-02-18T16:59:39.280Z,5.07
2023-02-18T17:02:17.273Z,4.80
2023-02-18T17:04:44.039Z,5.93
2023-02-18T17:07:11.448Z,4.47
2023-02-18T17:09:38.237Z,5.25
2023-02-18T17:12:05.465Z,4.60
2023-02-18T17:14:32.286Z,4.88
2023-02-18T17:17:01.904Z,5.05
2023-02-18T17:19:28.913Z,5.13
2023-02-18T17:21:55.794Z,5.35
2023-02-18T17:24:22.822Z,5.32
2023-02-18T17:26:49.639Z,9.75
2023-02-18T17:29:16.382Z,6.40
2023-02-18T17:31:47.080Z,7.22
2023-02-18T17:34:20.230Z,5.22
2023-02-18T17:36:47.189Z,6.05
2023-02-18T17:39:15.826Z,5.05
2023-02-18T17:41:43.261Z,5.93
2023-02-18T17:44:21.196Z,7.80
2023-02-18T17:46:51.441Z,6.70
2023-02-18T17:49:18.710Z,6.65
2023-02-18T17:51:45.979Z,6.03
2023-02-18T17:54:14.552Z,4.95
2023-02-18T17:56:42.169Z,5.30
2023-02-18T17:59:08.985Z,5.47
2023-02-18T18:01:36.197Z,7.05
2023-02-18T18:04:03.398Z,6.10
2023-02-18T18:06:30.345Z,5.32
2023-02-18T18:08:57.331Z,6.43
2023-02-18T18:11:25.310Z,6.22
2023-02-18T18:13:55.416Z,5.93
2023-02-18T18:16:22.321Z,5.93
2023-02-18T18:18:49.264Z,5.93
2023-02-18T18:21:30.947Z,5.55
2023-02-18T18:23:58.202Z,5.50
2023-02-18T18:26:25.080Z,7.25
2023-02-18T18:28:53.365Z,6.93
2023-02-18T18:31:21.048Z,6.63
2023-02-18T18:33:51.478Z,5.90
2023-02-18T18:36:19.846Z,6.72
2023-02-18T18:38:47.070Z,6.10
2023-02-18T18:41:19.820Z,7.63
2023-02-18T18:43:46.898Z,7.22
2023-02-18T18:46:14.089Z,6.00
2023-02-18T18:48:41.057Z,7.82
2023-02-18T18:51:10.349Z,7.32
2023-02-18T18:53:37.407Z,6.85
2023-02-18T18:56:06.767Z,5.63
2023-02-18T18:58:33.842Z,6.85
2023-02-18T19:01:06.787Z,6.30
2023-02-18T19:03:35.337Z,7.30
2023-02-18T19:06:02.452Z,5.65
2023-02-18T19:08:31.784Z,10.02
2023-02-18T19:10:58.688Z,6.97
2023-02-18T19:13:31.169Z,7.53
2023-02-18T19:16:27.435Z,6.67
2023-02-18T19:18:54.364Z,7.20
2023-02-18T19:21:21.130Z,7.85
2023-02-18T19:23:48.029Z,5.90
2023-02-18T19:26:16.560Z,5.93
2023-02-18T19:28:44.464Z,7.03
2023-02-18T19:31:11.844Z,7.45
2023-02-18T19:33:39.439Z,7.57
2023-02-18T19:36:08.827Z,6.07
2023-02-18T19:38:35.861Z,7.15
2023-02-18T19:41:14.248Z,6.35
2023-02-18T19:43:42.700Z,7.07
2023-02-18T19:46:15.439Z,6.60
2023-02-18T19:48:42.604Z,7.40
2023-02-18T19:51:10.135Z,7.78
2023-02-18T19:53:37.420Z,6.60
2023-02-18T19:56:07.281Z,6.57
2023-02-18T19:58:34.905Z,6.78
2023-02-18T20:01:01.876Z,7.47
2023-02-18T20:03:29.451Z,6.53
2023-02-18T20:05:56.185Z,6.30
2023-02-18T20:08:22.942Z,6.55
2023-02-18T20:10:57.478Z,6.97
2023-02-18T20:13:24.220Z,6.35
2023-02-18T20:15:51.062Z,5.65
2023-02-18T20:18:17.805Z,6.13
2023-02-18T20:20:51.196Z,6.30
2023-02-18T20:25:47.503Z,6.57
2023-02-18T20:28:14.781Z,6.45
2023-02-18T20:30:41.550Z,6.40
2023-02-18T20:33:08.296Z,5.97
2023-02-18T20:35:35.057Z,7.88
2023-02-18T20:38:01.837Z,7.97
2023-02-18T20:40:28.756Z,7.55
2023-02-18T20:42:55.623Z,8.00
2023-02-18T20:45:22.361Z,6.25
2023-02-18T20:47:49.185Z,7.63
2023-02-18T20:50:16.107Z,6.97
2023-02-18T20:52:42.910Z,7.68
2023-02-18T20:55:09.637Z,8.90
2023-02-18T20:57:36.454Z,11.18
2023-02-18T21:00:04.312Z,9.70
2023-02-18T21:02:32.026Z,7.22
2023-02-18T21:04:58.835Z,7.35
2023-02-18T21:07:25.545Z,9.15
2023-02-18T21:09:52.305Z,6.82
2023-02-18T21:12:19.055Z,6.13
2023-02-18T21:14:45.936Z,7.15
2023-02-18T21:17:12.650Z,6.50
2023-02-18T21:19:39.407Z,7.13
2023-02-18T21:22:06.131Z,7.65
2023-02-18T21:24:32.937Z,7.28
2023-02-18T21:26:59.639Z,9.35
2023-02-18T21:29:28.067Z,7.70
2023-02-18T21:31:55.069Z,8.63
2023-02-18T21:34:22.725Z,7.78
2023-02-18T21:36:49.562Z,8.15
2023-02-18T21:39:16.348Z,7.22
2023-02-18T21:41:43.123Z,7.25
2023-02-18T21:44:10.097Z,7.32
2023-02-18T21:46:37.446Z,7.18
2023-02-18T21:49:12.422Z,6.60
2023-02-18T21:51:56.848Z,7.28
2023-02-18T21:54:32.655Z,8.27
2023-02-18T21:57:00.889Z,8.68
2023-02-18T21:59:29.661Z,8.60
2023-02-18T22:01:59.672Z,9.95
2023-02-18T22:04:28.453Z,9.27
2023-02-18T22:06:55.296Z,7.82
2023-02-18T22:09:23.309Z,7.30
2023-02-18T22:11:50.320Z,7.50
2023-02-18T22:14:17.190Z,8.02
2023-02-18T22:16:44.235Z,7.22
2023-02-18T22:19:12.790Z,8.60
2023-02-18T22:21:40.034Z,8.48
2023-02-18T22:24:07.808Z,8.65
2023-02-18T22:26:34.912Z,8.02
2023-02-18T22:29:01.935Z,8.32
2023-02-18T22:31:30.598Z,9.80
2023-02-18T22:33:58.825Z,9.43
2023-02-18T22:36:27.627Z,9.48
2023-02-18T22:38:55.003Z,8.60
2023-02-18T22:41:23.405Z,8.27
2023-02-18T22:43:54.840Z,8.82
2023-02-18T22:46:22.086Z,8.23
2023-02-18T22:48:48.807Z,7.50
2023-02-18T22:51:18.585Z,7.57
2023-02-18T22:53:46.083Z,8.48
2023-02-18T22:56:15.609Z,7.57
2023-02-18T22:58:43.307Z,7.18
2023-02-18T23:01:34.639Z,8.70
2023-02-18T23:04:07.598Z,8.95
2023-02-18T23:06:35.592Z,8.88
2023-02-18T23:09:02.460Z,8.13
2023-02-18T23:11:29.411Z,7.90
2023-02-18T23:14:15.232Z,7.97
2023-02-18T23:17:00.749Z,7.30
2023-02-18T23:19:30.480Z,7.28
2023-02-18T23:21:57.441Z,8.90
2023-02-18T23:24:24.697Z,9.05
2023-02-18T23:26:51.743Z,7.63
2023-02-18T23:29:18.635Z,7.15
2023-02-18T23:31:45.609Z,7.90
2023-02-18T23:34:14.676Z,7.45
2023-02-18T23:36:42.954Z,9.05
2023-02-18T23:39:13.316Z,8.63
2023-02-18T23:41:40.274Z,9.02
2023-02-18T23:44:10.594Z,7.22
2023-02-18T23:46:38.195Z,7.47
2023-02-18T23:49:05.158Z,7.57
2023-02-18T23:51:32.206Z,8.43
2023-02-18T23:54:01.506Z,6.30
2023-02-18T23:56:28.653Z,6.90
2023-02-18T23:58:58.158Z,6.90
